createdAt,value
2023-05-01T00:00:54.123Z,3.90
2023-05-01T00:01:57.033Z,3.55
2023-05-01T00:02:59.121Z,12.10
2023-05-01T00:04:02.341Z,4.32
2023-05-01T00:05:05.061Z,4.70
2023-05-01T00:06:08.100Z,2.97
2023-05-01T00:07:10.152Z,3.55
2023-05-01T00:08:13.209Z,4.28
2023-05-01T00:09:15.282Z,3.75
2023-05-01T00:10:20.215Z,8.55
2023-05-01T00:11:22.763Z,5.40
2023-05-01T00:12:26.138Z,5.25
2023-05-01T00:13:28.118Z,3.53
2023-05-01T00:14:31.358Z,3.97
2023-05-01T00:15:33.677Z,4.32
2023-05-01T00:16:37.173Z,7.15
2023-05-01T00:17:39.260Z,3.22
2023-05-01T00:18:42.277Z,4.40
2023-05-01T00:19:44.306Z,5.57
2023-05-01T00:20:47.283Z,5.68
2023-05-01T00:21:51.570Z,4.15
2023-05-01T00:22:54.498Z,3.72
2023-05-01T00:23:56.630Z,6.18
2023-05-01T00:24:59.557Z,4.13
2023-05-01T00:26:03.120Z,3.80
2023-05-01T00:27:06.186Z,4.30
2023-05-01T00:28:08.196Z,4.20
2023-05-01T00:29:11.163Z,3.30
2023-05-01T00:30:13.258Z,6.82
2023-05-01T00:31:16.292Z,6.57
2023-05-01T00:32:18.542Z,3.38
2023-05-01T00:33:21.604Z,3.30
2023-05-01T00:34:25.098Z,4.43
2023-05-01T00:35:28.458Z,4.32
2023-05-01T00:36:31.688Z,4.10
2023-05-01T00:37:34.633Z,4.35
2023-05-01T00:38:36.541Z,3.55
2023-05-01T00:39:39.471Z,3.50
2023-05-01T00:40:45.168Z,3.65
2023-05-01T00:41:49.439Z,8.02
2023-05-01T00:42:51.393Z,5.80
2023-05-01T00:43:54.337Z,3.55
2023-05-01T00:44:56.290Z,3.33
2023-05-01T00:45:59.402Z,3.78
2023-05-01T00:47:02.369Z,5.43
2023-05-01T00:48:06.140Z,3.83
2023-05-01T00:49:08.142Z,4.40
2023-05-01T00:50:11.805Z,4.50
2023-05-01T00:51:14.484Z,3.70
2023-05-01T00:52:17.728Z,3.28
2023-05-01T00:53:21.299Z,4.28
2023-05-01T00:54:25.448Z,4.75
2023-05-01T00:55:27.665Z,4.85
2023-05-01T00:56:31.796Z,3.85
2023-05-01T00:57:35.134Z,3.55
2023-05-01T00:58:38.750Z,4.25
2023-05-01T00:59:41.253Z,3.70
2023-05-01T01:00:44.520Z,4.05
2023-05-01T01:01:47.103Z,4.45
2023-05-01T01:02:50.465Z,4.22
2023-05-01T01:03:52.571Z,7.22
2023-05-01T01:04:55.955Z,3.90
2023-05-01T01:06:08.185Z,3.90
2023-05-01T01:07:17.212Z,4.90
2023-05-01T01:08:26.819Z,5.20
2023-05-01T01:09:39.752Z,4.28
2023-05-01T01:10:52.981Z,4.18
2023-05-01T01:12:07.974Z,3.97
2023-05-01T01:13:19.284Z,4.75
2023-05-01T01:14:28.523Z,4.05
2023-05-01T01:15:35.807Z,3.15
2023-05-01T01:16:45.991Z,4.65
2023-05-01T01:17:53.565Z,3.60
2023-05-01T01:19:03.315Z,3.83
2023-05-01T01:20:29.746Z,4.43
2023-05-01T01:21:36.104Z,3.90
2023-05-01T01:22:43.741Z,4.78
2023-05-01T01:24:23.628Z,4.68
2023-05-01T01:25:47.829Z,3.80
2023-05-01T01:27:07.906Z,3.75
2023-05-01T01:28:36.915Z,3.90
2023-05-01T01:29:51.523Z,4.55
2023-05-01T01:31:15.254Z,4.60
2023-05-01T01:32:50.127Z,3.80
2023-05-01T01:34:01.900Z,6.18
2023-05-01T01:35:09.038Z,4.68
2023-05-01T01:36:17.424Z,4.75
2023-05-01T01:37:23.578Z,4.25
2023-05-01T01:38:35.936Z,4.25
2023-05-01T01:39:47.041Z,5.10
2023-05-01T01:40:55.318Z,5.35
2023-05-01T01:42:01.058Z,6.95
2023-05-01T01:43:05.938Z,5.68
2023-05-01T01:44:13.847Z,4.85
2023-05-01T01:45:20.035Z,8.65
2023-05-01T01:46:25.497Z,5.05
2023-05-01T01:47:33.131Z,5.80
2023-05-01T01:48:41.460Z,6.25
2023-05-01T01:49:51.318Z,5.35
2023-05-01T01:50:54.844Z,10.05
2023-05-01T01:52:00.224Z,8.88
2023-05-01T01:53:04.470Z,5.30
2023-05-01T01:54:08.645Z,7.28
2023-05-01T01:55:14.572Z,7.25
2023-05-01T01:56:18.815Z,7.35
2023-05-01T01:57:23.510Z,6.38
2023-05-01T01:58:26.876Z,5.85
2023-05-01T01:59:31.713Z,7.80
2023-05-01T02:00:35.735Z,4.90
2023-05-01T02:01:41.608Z,5.68
2023-05-01T02:02:45.825Z,6.25
2023-05-01T02:03:48.792Z,6.57
2023-05-01T02:04:56.708Z,5.50
2023-05-01T02:05:59.931Z,7.13
2023-05-01T02:07:03.921Z,6.45
2023-05-01T02:08:07.871Z,5.10
2023-05-01T02:09:10.732Z,6.97
2023-05-01T02:10:16.202Z,7.85
2023-05-01T02:11:20.925Z,6.22
2023-05-01T02:12:26.714Z,8.30
2023-05-01T02:13:29.692Z,6.00
2023-05-01T02:14:34.497Z,6.15
2023-05-01T02:15:38.885Z,4.80
2023-05-01T02:16:43.616Z,10.75
2023-05-01T02:17:46.014Z,7.78
2023-05-01T02:18:50.460Z,5.25
2023-05-01T02:19:55.489Z,5.72
2023-05-01T02:20:59.601Z,10.55
2023-05-01T02:22:02.642Z,6.78
2023-05-01T02:23:07.740Z,11.57
2023-05-01T02:24:10.650Z,5.00
2023-05-01T02:25:14.936Z,4.85
2023-05-01T02:26:18.222Z,7.90
2023-05-01T02:27:24.368Z,9.00
2023-05-01T02:28:29.269Z,5.25
2023-05-01T02:29:32.180Z,7.07
2023-05-01T02:30:34.500Z,11.23
2023-05-01T02:31:38.439Z,11.80
2023-05-01T02:32:40.487Z,6.13
2023-05-01T02:33:43.403Z,9.20
2023-05-01T02:34:45.426Z,6.65
2023-05-01T02:35:50.040Z,7.88
2023-05-01T02:36:52.038Z,5.70
2023-05-01T02:37:55.036Z,7.97
2023-05-01T02:38:57.107Z,5.60
2023-05-01T02:40:00.613Z,5.85
2023-05-01T02:41:03.843Z,7.53
2023-05-01T02:42:09.524Z,5.65
2023-05-01T02:43:15.650Z,6.07
2023-05-01T02:44:20.228Z,5.65
2023-05-01T02:45:24.658Z,8.45
2023-05-01T02:46:29.155Z,7.45
2023-05-01T02:47:34.916Z,8.50
2023-05-01T02:48:40.219Z,5.53
2023-05-01T02:49:43.916Z,13.25
2023-05-01T02:50:49.715Z,7.63
2023-05-01T02:51:52.066Z,6.40
2023-05-01T02:52:55.885Z,6.15
2023-05-01T02:53:59.314Z,7.97
2023-05-01T02:55:03.470Z,5.25
2023-05-01T02:56:07.795Z,8.85
2023-05-01T02:57:11.580Z,6.78
2023-05-01T02:58:16.820Z,5.60
2023-05-01T02:59:19.739Z,5.28
2023-05-01T03:00:23.439Z,6.10
2023-05-01T03:01:26.964Z,8.60
2023-05-01T03:02:29.163Z,6.72
2023-05-01T03:03:32.392Z,6.45
2023-05-01T03:04:34.686Z,9.27
2023-05-01T03:05:38.208Z,7.60
2023-05-01T03:06:41.624Z,6.90
2023-05-01T03:07:44.742Z,6.45
2023-05-01T03:08:47.837Z,10.80
2023-05-01T03:09:50.773Z,7.88
2023-05-01T03:10:52.727Z,10.98
2023-05-01T03:11:55.656Z,6.40
2023-05-01T03:12:57.654Z,8.23
2023-05-01T03:14:00.927Z,5.55
2023-05-01T03:15:03.678Z,8.77
2023-05-01T03:16:07.652Z,9.45
2023-05-01T03:17:09.932Z,8.32
2023-05-01T03:18:13.143Z,7.63
2023-05-01T03:19:15.421Z,6.80
2023-05-01T03:20:18.468Z,9.18
2023-05-01T03:21:20.548Z,8.13
2023-05-01T03:22:24.830Z,7.70
2023-05-01T03:23:28.014Z,7.10
2023-05-01T03:24:31.011Z,6.47
2023-05-01T03:25:33.107Z,8.75
2023-05-01T03:26:36.094Z,7.25
2023-05-01T03:27:38.028Z,7.30
2023-05-01T03:28:41.013Z,8.68
2023-05-01T03:29:42.976Z,7.03
2023-05-01T03:30:46.113Z,7.43
2023-05-01T03:31:48.184Z,7.10
2023-05-01T03:32:51.698Z,6.35
2023-05-01T03:33:54.518Z,6.10
2023-05-01T03:34:57.910Z,7.68
2023-05-01T03:36:02.112Z,7.22
2023-05-01T03:37:05.380Z,7.90
2023-05-01T03:38:08.751Z,6.35
2023-05-01T03:39:12.518Z,7.38
2023-05-01T03:40:14.838Z,6.15
2023-05-01T03:41:17.761Z,9.63
2023-05-01T03:42:20.132Z,7.95
2023-05-01T03:43:23.849Z,9.20
2023-05-01T03:44:26.271Z,11.70
2023-05-01T03:45:29.186Z,7.43
2023-05-01T03:46:31.537Z,6.65
2023-05-01T03:47:34.661Z,8.05
2023-05-01T03:48:36.677Z,7.35
2023-05-01T03:49:39.720Z,10.57
2023-05-01T03:50:41.739Z,9.98
2023-05-01T03:51:44.670Z,8.45
2023-05-01T03:52:46.651Z,8.88
2023-05-01T03:53:51.012Z,8.07
2023-05-01T03:54:53.278Z,9.88
2023-05-01T03:55:56.244Z,7.75
2023-05-01T03:56:58.673Z,7.75
2023-05-01T03:58:01.830Z,8.30
2023-05-01T03:59:04.034Z,5.90
2023-05-01T04:00:08.125Z,9.35
2023-05-01T04:01:10.281Z,8.88
2023-05-01T04:02:13.270Z,7.47
2023-05-01T04:03:15.374Z,8.20
2023-05-01T04:04:18.470Z,10.82
2023-05-01T04:05:21.534Z,8.40
2023-05-01T04:06:24.623Z,13.48
2023-05-01T04:07:26.747Z,9.13
2023-05-01T04:08:29.724Z,9.70
2023-05-01T04:09:33.078Z,8.10
2023-05-01T04:10:36.051Z,7.03
2023-05-01T04:11:38.062Z,7.68
2023-05-01T04:12:41.050Z,10.75
2023-05-01T04:13:42.951Z,7.55
2023-05-01T04:14:46.087Z,7.78
2023-05-01T04:15:48.071Z,8.88
2023-05-01T04:16:51.378Z,8.20
2023-05-01T04:17:55.880Z,9.45
2023-05-01T04:18:58.944Z,8.88
2023-05-01T04:20:01.024Z,8.18
2023-05-01T04:21:03.994Z,9.27
2023-05-01T04:22:05.899Z,7.82
2023-05-01T04:23:09.543Z,8.90
2023-05-01T04:24:11.835Z,7.90
2023-05-01T04:25:16.198Z,10.40
2023-05-01T04:26:18.156Z,9.18
2023-05-01T04:27:21.814Z,11.02
2023-05-01T04:28:23.816Z,7.72
2023-05-01T04:29:26.825Z,10.38
2023-05-01T04:30:30.471Z,10.23
2023-05-01T04:31:33.470Z,9.80
2023-05-01T04:32:35.718Z,10.23
2023-05-01T04:33:38.670Z,12.32
2023-05-01T04:34:40.625Z,8.02
2023-05-01T04:35:43.713Z,9.02
2023-05-01T04:36:45.742Z,9.70
2023-05-01T04:37:48.705Z,12.32
2023-05-01T04:38:50.618Z,11.55
2023-05-01T04:39:54.274Z,14.70
2023-05-01T04:40:57.692Z,9.10
2023-05-01T04:42:00.591Z,29.52
2023-05-01T04:43:02.505Z,9.98
2023-05-01T04:44:05.603Z,9.10
2023-05-01T04:45:08.088Z,10.02
2023-05-01T04:46:11.009Z,9.15
2023-05-01T04:47:12.991Z,14.25
2023-05-01T04:48:16.048Z,10.93
2023-05-01T04:49:17.997Z,10.02
2023-05-01T04:50:21.092Z,9.35
2023-05-01T04:51:23.413Z,11.15
2023-05-01T04:52:26.355Z,8.43
2023-05-01T04:53:28.790Z,9.15
2023-05-01T04:54:31.773Z,8.18
2023-05-01T04:55:33.761Z,8.52
2023-05-01T04:56:38.093Z,9.50
2023-05-01T04:57:40.049Z,14.38
2023-05-01T04:58:43.126Z,11.38
2023-05-01T04:59:45.119Z,8.93
2023-05-01T05:00:48.156Z,12.80
2023-05-01T05:01:50.277Z,10.52
2023-05-01T05:02:53.264Z,11.35
2023-05-01T05:03:55.382Z,12.70
2023-05-01T05:04:58.774Z,15.10
2023-05-01T05:06:00.954Z,9.35
2023-05-01T05:07:03.878Z,8.00
2023-05-01T05:08:06.381Z,11.43
2023-05-01T05:09:09.324Z,15.18
2023-05-01T05:10:11.306Z,10.57
2023-05-01T05:11:14.327Z,10.80
2023-05-01T05:12:17.715Z,13.75
2023-05-01T05:13:20.596Z,8.38
2023-05-01T05:14:22.544Z,11.88
2023-05-01T05:15:25.563Z,10.55
2023-05-01T05:16:27.612Z,11.80
2023-05-01T05:17:30.581Z,12.63
2023-05-01T05:18:32.578Z,8.60
2023-05-01T05:19:35.568Z,9.35
2023-05-01T05:20:38.934Z,15.63
2023-05-01T05:21:41.838Z,11.20
2023-05-01T05:22:44.164Z,10.35
2023-05-01T05:23:47.186Z,10.55
2023-05-01T05:24:53.907Z,9.93
2023-05-01T05:25:57.950Z,13.15
2023-05-01T05:27:00.890Z,11.55
2023-05-01T05:28:04.338Z,13.40
2023-05-01T05:29:07.304Z,9.93
2023-05-01T05:30:10.376Z,9.43
2023-05-01T05:31:13.429Z,10.52
2023-05-01T05:32:15.483Z,10.75
2023-05-01T05:33:18.512Z,10.85
2023-05-01T05:34:20.576Z,10.77
2023-05-01T05:35:23.519Z,13.20
2023-05-01T05:36:27.580Z,10.35
2023-05-01T05:37:30.499Z,12.90
2023-05-01T05:38:32.448Z,11.55
2023-05-01T05:39:35.351Z,11.55
2023-05-01T05:40:37.296Z,11.50
2023-05-01T05:41:40.212Z,12.00
2023-05-01T05:42:42.134Z,9.25
2023-05-01T05:43:46.439Z,14.23
2023-05-01T05:44:48.334Z,10.65
2023-05-01T05:45:51.495Z,15.40
2023-05-01T05:46:53.542Z,9.95
2023-05-01T05:47:56.503Z,10.05
2023-05-01T05:48:58.462Z,13.00
2023-05-01T05:50:01.365Z,11.90
2023-05-01T05:51:03.432Z,12.90
2023-05-01T05:52:06.521Z,12.40
2023-05-01T05:53:09.090Z,12.60
2023-05-01T05:54:12.216Z,12.60
2023-05-01T05:55:14.176Z,12.40
2023-05-01T05:56:17.374Z,16.63
2023-05-01T05:57:19.287Z,9.90
2023-05-01T05:58:23.308Z,15.05
2023-05-01T05:59:27.762Z,12.13
2023-05-01T06:00:29.921Z,11.10
2023-05-01T06:01:33.006Z,11.82
2023-05-01T06:02:34.994Z,11.90
2023-05-01T06:03:38.432Z,12.85
2023-05-01T06:04:40.534Z,13.48
2023-05-01T06:05:44.008Z,12.60
2023-05-01T06:06:46.173Z,13.40
2023-05-01T06:07:49.200Z,16.25
2023-05-01T06:08:51.468Z,13.23
2023-05-01T06:09:54.511Z,16.17
2023-05-01T06:10:56.585Z,9.63
2023-05-01T06:11:59.510Z,13.32
2023-05-01T06:13:14.175Z,11.35
2023-05-01T06:14:17.776Z,12.82
2023-05-01T06:15:21.291Z,15.90
2023-05-01T06:16:24.337Z,10.55
2023-05-01T06:17:26.682Z,17.75
2023-05-01T06:18:30.229Z,16.17
2023-05-01T06:19:32.206Z,16.88
2023-05-01T06:20:35.204Z,12.65
2023-05-01T06:21:37.110Z,12.48
2023-05-01T06:22:40.009Z,12.48
2023-05-01T06:23:41.941Z,12.55
2023-05-01T06:24:45.176Z,13.02
2023-05-01T06:25:48.757Z,12.68
2023-05-01T06:26:51.645Z,14.05
2023-05-01T06:27:53.559Z,12.27
2023-05-01T06:28:56.654Z,15.57
2023-05-01T06:29:58.734Z,10.57
2023-05-01T06:31:03.187Z,13.40
2023-05-01T06:32:05.518Z,11.93
2023-05-01T06:33:09.869Z,16.05
2023-05-01T06:34:12.703Z,16.92
2023-05-01T06:35:16.062Z,12.55
2023-05-01T06:36:17.972Z,13.02
2023-05-01T06:37:21.018Z,11.90
2023-05-01T06:38:24.426Z,13.65
2023-05-01T06:39:28.579Z,12.85
2023-05-01T06:40:31.674Z,14.30
2023-05-01T06:41:36.788Z,11.50
2023-05-01T06:42:39.659Z,13.73
2023-05-01T06:43:42.566Z,13.88
2023-05-01T06:44:44.994Z,16.67
2023-05-01T06:45:47.889Z,13.85
2023-05-01T06:46:51.225Z,13.07
2023-05-01T06:47:54.440Z,16.70
2023-05-01T06:48:56.469Z,14.55
2023-05-01T06:49:59.543Z,11.30
2023-05-01T06:51:01.447Z,12.73
2023-05-01T06:52:04.462Z,12.95
2023-05-01T06:53:06.429Z,12.23
2023-05-01T06:54:10.295Z,15.30
2023-05-01T06:55:12.759Z,13.52
2023-05-01T06:56:15.675Z,16.88
2023-05-01T06:57:17.594Z,15.40
2023-05-01T06:58:24.152Z,12.35
2023-05-01T06:59:26.426Z,14.32
2023-05-01T07:00:29.495Z,10.68
2023-05-01T07:01:33.919Z,15.70
2023-05-01T07:02:40.686Z,11.35
2023-05-01T07:03:43.038Z,17.30
2023-05-01T07:04:46.074Z,11.80
2023-05-01T07:05:47.991Z,13.35
2023-05-01T07:06:51.049Z,12.25
2023-05-01T07:08:00.727Z,13.15
2023-05-01T07:09:05.446Z,15.75
2023-05-01T07:10:08.292Z,12.90
2023-05-01T07:11:11.528Z,11.27
2023-05-01T07:12:13.538Z,13.68
2023-05-01T07:13:16.816Z,15.50
2023-05-01T07:14:18.731Z,13.32
2023-05-01T07:15:22.353Z,12.90
2023-05-01T07:16:24.704Z,14.20
2023-05-01T07:17:28.024Z,12.48
2023-05-01T07:18:31.386Z,11.20
2023-05-01T07:19:34.368Z,12.05
2023-05-01T07:20:36.283Z,14.50
2023-05-01T07:21:39.179Z,12.40
2023-05-01T07:22:41.135Z,9.90
2023-05-01T07:23:44.060Z,10.60
2023-05-01T07:24:46.141Z,12.05
2023-05-01T07:25:49.080Z,16.33
2023-05-01T07:26:51.720Z,17.15
2023-05-01T07:27:55.222Z,15.07
2023-05-01T07:28:57.239Z,10.50
2023-05-01T07:30:01.678Z,10.75
2023-05-01T07:31:04.425Z,8.68
2023-05-01T07:32:07.599Z,11.82
2023-05-01T07:33:09.680Z,10.60
2023-05-01T07:34:13.977Z,12.68
2023-05-01T07:35:16.123Z,12.27
2023-05-01T07:36:20.479Z,11.05
2023-05-01T07:37:22.635Z,10.38
2023-05-01T07:38:25.582Z,9.45
2023-05-01T07:39:27.604Z,9.60
2023-05-01T07:40:30.530Z,8.77
2023-05-01T07:41:32.434Z,7.45
2023-05-01T07:42:35.363Z,9.70
2023-05-01T07:43:37.343Z,9.05
2023-05-01T07:44:40.267Z,7.65
2023-05-01T07:45:42.864Z,8.02
2023-05-01T07:46:46.032Z,8.63
2023-05-01T07:47:48.046Z,5.65
2023-05-01T07:48:50.964Z,7.18
2023-05-01T07:49:54.296Z,6.70
2023-05-01T07:50:58.031Z,4.60
2023-05-01T07:51:59.974Z,5.50
2023-05-01T07:53:02.854Z,5.15
2023-05-01T07:54:04.916Z,4.68
2023-05-01T07:55:09.139Z,3.80
2023-05-01T07:56:11.232Z,10.20
2023-05-01T07:57:14.514Z,6.53
2023-05-01T07:58:17.259Z,6.53
2023-05-01T07:59:20.181Z,7.13
2023-05-01T08:00:22.449Z,8.70
2023-05-01T08:01:25.489Z,5.30
2023-05-01T08:02:27.618Z,6.80
2023-05-01T08:03:31.027Z,4.22
2023-05-01T08:04:33.188Z,6.03
2023-05-01T08:05:37.661Z,5.40
2023-05-01T08:06:40.877Z,8.27
2023-05-01T08:07:42.869Z,4.93
2023-05-01T08:08:45.939Z,3.70
2023-05-01T08:09:47.872Z,4.65
2023-05-01T08:10:51.893Z,5.57
2023-05-01T08:11:54.819Z,5.50
2023-05-01T08:12:56.754Z,5.10
2023-05-01T08:13:59.667Z,5.70
2023-05-01T08:15:01.763Z,5.22
2023-05-01T08:16:05.507Z,7.13
2023-05-01T08:17:07.495Z,4.25
2023-05-01T08:18:10.678Z,6.60
2023-05-01T08:19:13.661Z,4.20
2023-05-01T08:20:15.643Z,5.28
2023-05-01T08:21:20.004Z,6.78
2023-05-01T08:22:23.192Z,6.22
2023-05-01T08:23:26.281Z,4.22
2023-05-01T08:24:29.623Z,3.83
2023-05-01T08:25:33.913Z,5.72
2023-05-01T08:26:36.836Z,4.45
2023-05-01T08:27:39.185Z,4.50
2023-05-01T08:28:42.200Z,6.82
2023-05-01T08:29:44.514Z,4.63
2023-05-01T08:30:49.131Z,4.95
2023-05-01T08:31:51.274Z,3.80
2023-05-01T08:32:54.330Z,8.15
2023-05-01T08:33:57.246Z,4.20
2023-05-01T08:34:59.249Z,4.80
2023-05-01T08:36:02.392Z,4.13
2023-05-01T08:37:06.978Z,5.32
2023-05-01T08:38:09.903Z,4.78
2023-05-01T08:39:12.082Z,4.65
2023-05-01T08:40:16.266Z,6.65
2023-05-01T08:41:23.804Z,5.32
2023-05-01T08:42:26.322Z,4.93
2023-05-01T08:43:30.584Z,6.50
2023-05-01T08:44:33.987Z,6.97
2023-05-01T08:45:39.096Z,4.80
2023-05-01T08:46:46.901Z,5.70
2023-05-01T08:47:51.179Z,6.03
2023-05-01T08:48:57.862Z,5.25
2023-05-01T08:50:01.767Z,4.40
2023-05-01T08:51:06.413Z,4.40
2023-05-01T08:52:12.397Z,4.90
2023-05-01T08:53:17.543Z,4.30
2023-05-01T08:54:22.123Z,4.38
2023-05-01T08:55:25.754Z,4.25
2023-05-01T08:56:31.337Z,9.10
2023-05-01T08:57:34.655Z,5.50
2023-05-01T08:58:38.616Z,5.30
2023-05-01T08:59:41.235Z,3.88
2023-05-01T09:00:44.581Z,6.03
2023-05-01T09:01:48.105Z,5.22
2023-05-01T09:02:52.595Z,5.40
2023-05-01T09:03:56.669Z,8.13
2023-05-01T09:05:05.732Z,14.70
2023-05-01T09:06:10.208Z,3.47
2023-05-01T09:07:14.750Z,3.85
2023-05-01T09:08:16.740Z,8.30
2023-05-01T09:09:19.645Z,4.05
2023-05-01T09:10:22.649Z,6.88
2023-05-01T09:11:24.933Z,4.05
2023-05-01T09:12:28.463Z,4.03
2023-05-01T09:13:31.699Z,4.45
2023-05-01T09:14:34.704Z,5.05
2023-05-01T09:15:36.691Z,4.00
2023-05-01T09:16:39.682Z,5.82
2023-05-01T09:17:44.959Z,3.58
2023-05-01T09:18:48.792Z,4.53
2023-05-01T09:19:51.286Z,4.00
2023-05-01T09:20:55.157Z,3.60
2023-05-01T09:21:57.221Z,5.93
2023-05-01T09:23:01.546Z,7.25
2023-05-01T09:24:03.727Z,8.73
2023-05-01T09:25:07.660Z,4.95
2023-05-01T09:26:09.821Z,3.97
2023-05-01T09:27:13.791Z,5.30
2023-05-01T09:28:16.626Z,9.40
2023-05-01T09:29:41.119Z,5.63
2023-05-01T09:30:43.314Z,4.85
2023-05-01T09:31:46.294Z,6.25
2023-05-01T09:33:06.122Z,5.18
2023-05-01T09:34:09.183Z,3.83
2023-05-01T09:35:12.670Z,4.97
2023-05-01T09:36:18.593Z,4.25
2023-05-01T09:37:28.859Z,4.95
2023-05-01T09:38:33.286Z,6.10
2023-05-01T09:39:35.441Z,8.63
2023-05-01T09:40:38.389Z,3.35
2023-05-01T09:41:51.892Z,4.97
2023-05-01T09:42:56.232Z,9.70
2023-05-01T09:43:58.287Z,4.70
2023-05-01T09:45:01.954Z,5.13
2023-05-01T09:46:05.522Z,7.07
2023-05-01T09:47:09.156Z,4.28
2023-05-01T09:48:11.834Z,4.05
2023-05-01T09:49:14.858Z,5.22
2023-05-01T09:50:29.874Z,5.93
2023-05-01T09:51:33.995Z,5.50
2023-05-01T09:52:36.031Z,4.32
2023-05-01T09:53:41.924Z,4.32
2023-05-01T09:54:44.931Z,4.85
2023-05-01T09:56:00.895Z,4.28
2023-05-01T09:57:03.989Z,4.05
2023-05-01T09:58:07.141Z,4.88
2023-05-01T09:59:21.796Z,6.00
2023-05-01T10:00:25.119Z,3.53
2023-05-01T10:01:47.313Z,4.35
2023-05-01T10:02:51.180Z,3.00
2023-05-01T10:03:56.782Z,3.08
2023-05-01T10:04:59.943Z,7.97
2023-05-01T10:06:04.228Z,4.60
2023-05-01T10:07:14.374Z,4.95
2023-05-01T10:08:16.508Z,6.32
2023-05-01T10:09:30.518Z,4.10
2023-05-01T10:10:32.444Z,5.05
2023-05-01T10:11:49.419Z,6.00
2023-05-01T10:12:52.653Z,5.43
2023-05-01T10:14:08.816Z,4.63
2023-05-01T10:15:24.864Z,3.03
2023-05-01T10:16:31.396Z,3.92
2023-05-01T10:17:35.670Z,3.80
2023-05-01T10:18:37.972Z,7.93
2023-05-01T10:19:40.975Z,6.13
2023-05-01T10:20:43.000Z,3.10
2023-05-01T10:21:45.941Z,4.65
2023-05-01T10:22:49.798Z,4.00
2023-05-01T10:23:52.652Z,3.30
2023-05-01T10:24:57.608Z,9.05
2023-05-01T10:26:02.988Z,3.38
2023-05-01T10:27:08.610Z,4.32
2023-05-01T10:28:11.857Z,7.60
2023-05-01T10:29:15.769Z,4.95
2023-05-01T10:30:18.677Z,4.38
2023-05-01T10:31:21.644Z,4.55
2023-05-01T10:32:23.884Z,4.07
2023-05-01T10:33:27.807Z,5.25
2023-05-01T10:34:32.785Z,4.53
2023-05-01T10:35:38.177Z,4.88
2023-05-01T10:36:46.095Z,2.78
2023-05-01T10:37:49.540Z,7.07
2023-05-01T10:38:52.768Z,3.45
2023-05-01T10:39:56.178Z,4.22
2023-05-01T10:40:59.431Z,3.55
2023-05-01T10:42:03.576Z,6.00
2023-05-01T10:43:21.037Z,4.60
2023-05-01T10:44:24.483Z,5.15
2023-05-01T10:45:31.178Z,3.35
2023-05-01T10:46:34.111Z,3.38
2023-05-01T10:47:45.263Z,3.35
2023-05-01T10:48:55.904Z,6.80
2023-05-01T10:50:04.902Z,4.47
2023-05-01T10:51:11.949Z,4.85
2023-05-01T10:52:15.824Z,4.45
2023-05-01T10:53:18.525Z,4.80
2023-05-01T10:54:27.135Z,3.40
2023-05-01T10:55:37.443Z,2.80
2023-05-01T10:56:44.247Z,3.90
2023-05-01T10:57:47.231Z,3.47
2023-05-01T10:58:56.550Z,3.05
2023-05-01T11:00:20.897Z,3.88
2023-05-01T11:01:33.703Z,3.88
2023-05-01T11:02:36.683Z,2.95
2023-05-01T11:03:40.223Z,2.75
2023-05-01T11:04:51.750Z,2.90
2023-05-01T11:06:06.945Z,3.30
2023-05-01T11:07:17.886Z,9.77
2023-05-01T11:08:32.577Z,3.55
2023-05-01T11:09:40.079Z,4.05
2023-05-01T11:10:43.392Z,5.18
2023-05-01T11:11:50.415Z,3.50
2023-05-01T11:12:54.028Z,2.65
2023-05-01T11:13:57.501Z,3.00
2023-05-01T11:15:05.751Z,5.18
2023-05-01T11:16:37.768Z,7.30
2023-05-01T11:17:47.374Z,7.20
2023-05-01T11:18:49.384Z,3.15
2023-05-01T11:19:52.559Z,3.78
2023-05-01T11:20:54.732Z,2.92
2023-05-01T11:21:58.341Z,3.08
2023-05-01T11:23:00.319Z,2.85
2023-05-01T11:24:03.827Z,3.75
2023-05-01T11:25:19.296Z,4.88
2023-05-01T11:26:24.432Z,5.03
2023-05-01T11:27:27.053Z,2.88
2023-05-01T11:28:33.093Z,3.40
2023-05-01T11:29:36.969Z,3.25
2023-05-01T11:30:40.615Z,5.57
2023-05-01T11:31:42.710Z,3.17
2023-05-01T11:32:46.869Z,3.15
2023-05-01T11:33:49.450Z,3.20
2023-05-01T11:34:53.195Z,3.42
2023-05-01T11:36:02.374Z,3.65
2023-05-01T11:37:05.350Z,2.60
2023-05-01T11:38:18.544Z,5.63
2023-05-01T11:39:22.184Z,4.57
2023-05-01T11:40:26.465Z,4.30
2023-05-01T11:41:31.355Z,2.70
2023-05-01T11:42:33.396Z,3.90
2023-05-01T11:43:50.628Z,3.75
2023-05-01T11:45:11.104Z,5.00
2023-05-01T11:46:14.709Z,3.67
2023-05-01T11:47:16.764Z,4.47
2023-05-01T11:48:19.755Z,3.25
2023-05-01T11:49:28.409Z,3.80
2023-05-01T11:50:35.527Z,4.78
2023-05-01T11:51:38.649Z,2.70
2023-05-01T11:52:45.098Z,4.47
2023-05-01T11:54:00.627Z,7.78
2023-05-01T11:55:03.981Z,2.80
2023-05-01T11:56:26.568Z,3.30
2023-05-01T11:57:30.697Z,3.20
2023-05-01T11:58:36.372Z,5.40
2023-05-01T11:59:38.596Z,3.00
2023-05-01T12:00:42.707Z,6.68
2023-05-01T12:01:46.489Z,4.40
2023-05-01T12:03:00.095Z,3.92
2023-05-01T12:04:03.304Z,2.65
2023-05-01T12:05:15.717Z,5.22
2023-05-01T12:06:18.718Z,3.55
2023-05-01T12:07:21.849Z,3.63
2023-05-01T12:08:25.578Z,3.17
2023-05-01T12:09:28.718Z,6.18
2023-05-01T12:10:33.506Z,4.05
2023-05-01T12:11:38.128Z,3.53
2023-05-01T12:12:42.440Z,4.90
2023-05-01T12:13:46.801Z,5.22
2023-05-01T12:14:50.268Z,3.10
2023-05-01T12:15:53.603Z,3.38
2023-05-01T12:16:57.018Z,3.05
2023-05-01T12:17:59.202Z,3.63
2023-05-01T12:19:02.961Z,4.22
2023-05-01T12:20:07.226Z,8.75
2023-05-01T12:21:16.150Z,5.05
2023-05-01T12:22:19.471Z,5.35
2023-05-01T12:23:32.587Z,3.35
2023-05-01T12:24:34.638Z,4.57
2023-05-01T12:25:39.308Z,3.85
2023-05-01T12:26:42.603Z,4.78
2023-05-01T12:27:46.011Z,5.43
2023-05-01T12:28:56.463Z,3.40
2023-05-01T12:29:58.400Z,5.88
2023-05-01T12:31:05.368Z,4.05
2023-05-01T12:32:08.996Z,6.90
2023-05-01T12:33:14.395Z,5.93
2023-05-01T12:34:17.431Z,4.18
2023-05-01T12:35:19.656Z,6.43
2023-05-01T12:36:25.271Z,6.22
2023-05-01T12:37:32.995Z,4.82
2023-05-01T12:38:36.006Z,3.00
2023-05-01T12:39:39.758Z,3.35
2023-05-01T12:40:53.099Z,3.25
2023-05-01T12:41:56.369Z,2.80
2023-05-01T12:43:00.752Z,3.38
2023-05-01T12:44:02.963Z,2.88
2023-05-01T12:45:06.562Z,2.50
2023-05-01T12:46:15.014Z,3.85
2023-05-01T12:47:18.081Z,5.15
2023-05-01T12:48:20.769Z,3.00
2023-05-01T12:49:24.585Z,4.85
2023-05-01T12:50:26.736Z,3.00
2023-05-01T12:51:29.701Z,2.60
2023-05-01T12:52:33.338Z,3.67
2023-05-01T12:53:36.328Z,4.65
2023-05-01T12:54:40.847Z,18.52
2023-05-01T12:55:47.880Z,3.25
2023-05-01T12:56:50.435Z,3.20
2023-05-01T12:57:55.880Z,5.10
2023-05-01T12:59:00.231Z,5.05
2023-05-01T13:00:04.922Z,3.10
2023-05-01T13:01:08.669Z,3.88
2023-05-01T13:02:12.525Z,2.80
2023-05-01T13:03:18.187Z,3.50
2023-05-01T13:04:23.329Z,3.60
2023-05-01T13:05:28.040Z,3.30
2023-05-01T13:06:33.770Z,2.97
2023-05-01T13:07:37.387Z,2.72
2023-05-01T13:08:40.153Z,3.92
2023-05-01T13:09:53.235Z,2.80
2023-05-01T13:10:57.332Z,2.60
2023-05-01T13:12:02.476Z,3.05
2023-05-01T13:13:04.953Z,3.05
2023-05-01T13:14:10.576Z,3.78
2023-05-01T13:15:20.052Z,3.40
2023-05-01T13:16:24.735Z,4.28
2023-05-01T13:17:28.125Z,3.13
2023-05-01T13:18:32.469Z,4.13
2023-05-01T13:19:35.429Z,3.55
2023-05-01T13:20:39.022Z,2.95
2023-05-01T13:21:48.977Z,2.95
2023-05-01T13:22:51.210Z,3.35
2023-05-01T13:23:56.329Z,4.38
2023-05-01T13:24:58.627Z,3.20
2023-05-01T13:26:01.749Z,3.20
2023-05-01T13:27:05.138Z,2.83
2023-05-01T13:28:09.274Z,4.80
2023-05-01T13:29:15.782Z,3.50
2023-05-01T13:30:21.767Z,3.70
2023-05-01T13:31:23.886Z,3.35
2023-05-01T13:32:27.576Z,4.35
2023-05-01T13:33:32.570Z,4.38
2023-05-01T13:34:37.479Z,5.22
2023-05-01T13:35:40.803Z,3.40
2023-05-01T13:36:44.138Z,3.90
2023-05-01T13:37:49.378Z,4.15
2023-05-01T13:38:53.943Z,3.42
2023-05-01T13:39:59.670Z,7.50
2023-05-01T13:41:01.912Z,2.60
2023-05-01T13:42:06.381Z,6.82
2023-05-01T13:43:13.906Z,4.88
2023-05-01T13:44:19.579Z,3.60
2023-05-01T13:45:21.802Z,5.78
2023-05-01T13:46:26.531Z,4.45
2023-05-01T13:47:29.671Z,5.50
2023-05-01T13:48:31.791Z,3.20
2023-05-01T13:49:35.178Z,5.00
2023-05-01T13:50:40.532Z,4.60
2023-05-01T13:51:46.536Z,3.50
2023-05-01T13:52:49.631Z,3.97
2023-05-01T13:53:53.447Z,6.40
2023-05-01T13:54:58.342Z,4.72
2023-05-01T13:56:01.024Z,4.75
2023-05-01T13:57:04.023Z,3.65
2023-05-01T13:58:06.546Z,4.13
2023-05-01T13:59:10.636Z,6.15
2023-05-01T14:00:17.632Z,4.20
2023-05-01T14:01:23.500Z,7.65
2023-05-01T14:02:27.566Z,8.18
2023-05-01T14:03:36.701Z,5.15
2023-05-01T14:04:41.902Z,5.55
2023-05-01T14:05:44.990Z,8.07
2023-05-01T14:06:48.594Z,5.22
2023-05-01T14:07:55.489Z,5.70
2023-05-01T14:09:00.026Z,6.30
2023-05-01T14:10:03.508Z,5.35
2023-05-01T14:11:07.717Z,5.15
2023-05-01T14:12:10.646Z,5.95